Time;durP1;ratioP1;P1;durP2;ratioP2;P2;SDS_P1;SDS_P2;PMS_P1;PMS_P2;Temp;Humidity;BMP_temperature;BMP_pressure;BME280_temperature;BME280_humidity;BME280_pressure;Samples;Min_cycle;Max_cycle;Signal;HPM_P1;HPM_P2
2023/09/11 00:00:58;;;;;;;6.23;5.73;;;22.70;71.20;22.00;96565.00;;;;5091629;28;20612;-82
2023/09/11 00:03:25;;;;;;;5.73;5.23;;;22.70;71.20;22.00;96562.00;;;;5092360;28;20287;-82
2023/09/11 00:06:05;;;;;;;5.43;4.97;;;22.70;71.20;22.00;96559.00;;;;5095434;28;20211;-82
2023/09/11 00:08:32;;;;;;;5.83;5.33;;;22.60;71.40;21.90;96560.00;;;;5088644;28;20207;-82
2023/09/11 00:11:00;;;;;;;6.17;5.57;;;22.60;71.20;21.90;96558.00;;;;5094613;28;20201;-82
2023/09/11 00:13:27;;;;;;;5.63;5.03;;;22.60;71.30;21.80;96559.00;;;;5094950;28;20648;-82
2023/09/11 00:15:55;;;;;;;5.80;5.40;;;22.50;71.30;21.80;96549.00;;;;5094280;28;20220;-82
2023/09/11 00:18:23;;;;;;;6.00;5.23;;;22.50;71.30;21.80;96548.00;;;;5093215;28;20203;-82
2023/09/11 00:20:50;;;;;;;6.03;5.53;;;22.40;71.20;21.70;96551.00;;;;5094991;28;20283;-82
2023/09/11 00:23:19;;;;;;;5.37;4.97;;;22.40;71.30;21.70;96541.00;;;;5094505;28;20219;-82
2023/09/11 00:25:46;;;;;;;5.40;4.90;;;22.40;71.40;21.60;96546.00;;;;5094068;28;20294;-82
2023/09/11 00:28:14;;;;;;;5.60;5.20;;;22.30;71.30;21.60;96551.00;;;;5091354;28;20203;-82
2023/09/11 00:30:41;;;;;;;5.60;5.10;;;22.30;71.40;21.60;96540.00;;;;5085302;28;20199;-82
2023/09/11 00:33:09;;;;;;;5.50;5.03;;;22.30;71.50;21.60;96534.00;;;;5092025;28;20191;-82
2023/09/11 00:35:36;;;;;;;5.77;5.37;;;22.20;71.50;21.50;96537.00;;;;5094767;28;20227;-82
2023/09/11 00:38:04;;;;;;;5.23;4.83;;;22.20;71.50;21.50;96539.00;;;;5093747;28;20199;-82
2023/09/11 00:40:34;;;;;;;5.87;5.37;;;22.20;71.50;21.50;96540.00;;;;5087088;28;20272;-82
2023/09/11 00:43:01;;;;;;;5.73;5.33;;;22.10;71.60;21.40;96541.00;;;;5095332;28;20199;-82
2023/09/11 00:45:29;;;;;;;5.40;4.90;;;22.10;71.60;21.40;96536.00;;;;5094760;28;20225;-82
2023/09/11 00:47:59;;;;;;;5.33;4.93;;;22.10;71.70;21.40;96542.00;;;;5095811;28;20290;-82
2023/09/11 00:50:26;;;;;;;5.70;5.30;;;22.00;72.40;21.30;96541.00;;;;5077531;28;20199;-82
2023/09/11 00:52:54;;;;;;;6.17;5.67;;;22.00;72.60;21.30;96541.00;;;;5095101;28;20201;-82
2023/09/11 00:55:22;;;;;;;5.80;5.30;;;22.00;71.90;21.30;96543.00;;;;5095027;28;20736;-82
2023/09/11 00:57:51;;;;;;;5.23;4.73;;;22.00;71.90;21.30;96532.00;;;;5094667;28;20687;-82
2023/09/11 01:00:20;;;;;;;5.40;5.00;;;21.90;71.90;21.20;96532.00;;;;5094348;28;20223;-82
2023/09/11 01:02:48;;;;;;;5.03;4.70;;;21.90;71.90;21.20;96530.00;;;;5092306;28;20577;-82
2023/09/11 01:05:16;;;;;;;5.77;5.27;;;21.90;72.00;21.20;96531.00;;;;5093827;28;20277;-82
2023/09/11 01:07:43;;;;;;;5.70;5.30;;;21.90;72.10;21.20;96532.00;;;;5072060;28;20207;-82
2023/09/11 01:10:11;;;;;;;4.97;4.60;;;21.80;72.10;21.10;96536.00;;;;5092015;28;20199;-82
2023/09/11 01:12:40;;;;;;;5.70;5.13;;;21.80;72.10;21.10;96526.00;;;;5091232;28;20191;-82
2023/09/11 01:15:11;;;;;;;5.03;4.70;;;21.80;72.20;21.10;96525.00;;;;5090226;28;20201;-82
2023/09/11 01:17:47;;;;;;;5.13;4.70;;;21.70;72.30;21.10;96523.00;;;;5092462;28;20564;-82
2023/09/11 01:20:47;;;;;;;5.43;5.03;;;21.70;72.40;21.00;96529.00;;;;5091023;28;20237;-82
2023/09/11 01:24:07;;;;;;;5.40;4.93;;;21.70;72.60;21.00;96525.00;;;;5084102;28;20218;-82
2023/09/11 01:27:13;;;;;;;5.73;5.20;;;21.70;72.70;21.00;96524.00;;;;5072878;28;20701;-82
2023/09/11 01:29:42;;;;;;;5.20;4.80;;;21.70;72.70;21.00;96516.00;;;;5072513;28;20195;-82
2023/09/11 01:32:13;;;;;;;5.20;4.80;;;21.70;72.30;21.00;96514.00;;;;5082321;28;20209;-82
2023/09/11 01:34:42;;;;;;;4.97;4.67;;;21.60;72.30;20.90;96513.00;;;;5088674;28;20199;-82
2023/09/11 01:37:09;;;;;;;5.60;5.10;;;21.60;72.30;20.90;96513.00;;;;5090821;28;20302;-82
2023/09/11 01:39:37;;;;;;;5.37;4.93;;;21.60;72.30;20.90;96518.00;;;;5093938;28;20219;-82
2023/09/11 01:42:10;;;;;;;6.27;5.33;;;21.60;72.40;20.90;96520.00;;;;5093286;28;20195;-83
2023/09/11 01:44:47;;;;;;;5.30;4.90;;;21.60;72.50;20.80;96519.00;;;;5095031;28;20210;-82
2023/09/11 01:47:20;;;;;;;5.50;5.00;;;21.50;72.40;20.80;96515.00;;;;5093862;28;20222;-82
2023/09/11 01:49:50;;;;;;;7.63;5.90;;;21.50;72.40;20.80;96516.00;;;;5094295;28;20575;-82
2023/09/11 01:52:20;;;;;;;5.43;4.93;;;21.50;72.60;20.80;96513.00;;;;5086342;28;20555;-82
2023/09/11 01:54:49;;;;;;;5.50;5.10;;;21.50;72.60;20.80;96508.00;;;;5093616;28;20584;-82
2023/09/11 01:57:17;;;;;;;4.93;4.43;;;21.50;72.70;20.70;96507.00;;;;5088988;28;20205;-82
2023/09/11 01:59:45;;;;;;;7.57;5.53;;;21.40;72.70;20.70;96506.00;;;;5084079;28;20725;-82
2023/09/11 02:02:13;;;;;;;5.50;5.10;;;21.40;72.80;20.70;96505.00;;;;5100922;28;20667;-82
2023/09/11 02:04:40;;;;;;;5.40;5.00;;;21.40;72.80;20.70;96504.00;;;;5090580;28;20202;-82
2023/09/11 02:07:08;;;;;;;5.40;4.97;;;21.40;72.90;20.70;96503.00;;;;5086679;28;20222;-82
2023/09/11 02:09:36;;;;;;;5.47;4.97;;;21.40;72.90;20.70;96499.00;;;;5094899;28;20203;-82
2023/09/11 02:12:04;;;;;;;5.40;5.00;;;21.30;72.90;20.70;96495.00;;;;5086433;28;20195;-82
2023/09/11 02:14:32;;;;;;;5.97;5.37;;;21.30;73.20;20.60;96497.00;;;;5095565;28;20206;-82
2023/09/11 02:17:02;;;;;;;5.70;5.20;;;21.30;73.50;20.60;96492.00;;;;5093301;28;20228;-82
2023/09/11 02:19:30;;;;;;;5.50;5.10;;;21.30;73.50;20.60;96490.00;;;;5090375;28;20656;-82
2023/09/11 02:21:58;;;;;;;5.40;4.90;;;21.30;73.40;20.60;96495.00;;;;5092844;28;20274;-82
2023/09/11 02:24:25;;;;;;;6.17;5.67;;;21.30;73.30;20.60;96493.00;;;;5088490;28;20192;-81
2023/09/11 02:26:52;;;;;;;5.53;5.03;;;21.30;73.20;20.60;96491.00;;;;5073399;28;20319;-82
2023/09/11 02:29:19;;;;;;;11.33;5.03;;;21.20;73.20;20.60;96491.00;;;;5085046;28;20211;-82
2023/09/11 02:31:47;;;;;;;4.97;4.67;;;21.30;73.30;20.50;96490.00;;;;5098885;28;20712;-82
2023/09/11 02:34:15;;;;;;;5.77;5.27;;;21.20;73.10;20.50;96492.00;;;;5105714;28;20201;-82
2023/09/11 02:36:42;;;;;;;6.27;5.77;;;21.20;73.20;20.50;96488.00;;;;5086524;28;20225;-82
2023/09/11 02:39:10;;;;;;;5.33;4.93;;;21.20;73.20;20.50;96487.00;;;;5077416;28;20223;-82
2023/09/11 02:41:37;;;;;;;6.47;5.97;;;21.20;73.30;20.50;96484.00;;;;5087609;28;20235;-82
2023/09/11 02:44:05;;;;;;;10.00;5.73;;;21.20;73.60;20.50;96479.00;;;;5092342;28;20664;-82
2023/09/11 02:46:33;;;;;;;6.20;5.67;;;21.20;73.70;20.40;96485.00;;;;5085625;28;20621;-82
2023/09/11 02:49:00;;;;;;;6.13;5.53;;;21.10;74.20;20.40;96486.00;;;;5091427;28;20197;-82
2023/09/11 02:51:30;;;;;;;5.90;5.50;;;21.10;73.50;20.40;96489.00;;;;5083267;28;20579;-82
2023/09/11 02:53:58;;;;;;;5.57;5.17;;;21.10;73.50;20.40;96485.00;;;;5083546;28;20222;-82
2023/09/11 02:56:25;;;;;;;5.70;5.20;;;21.10;73.50;20.40;96484.00;;;;5075042;28;20268;-82
2023/09/11 02:58:52;;;;;;;5.53;5.07;;;21.10;73.50;20.40;96477.00;;;;5091851;28;20198;-82
2023/09/11 03:01:19;;;;;;;5.37;4.93;;;21.10;73.50;20.30;96478.00;;;;5085821;28;20236;-82
2023/09/11 03:03:47;;;;;;;6.10;5.50;;;21.00;73.50;20.30;96485.00;;;;5084724;28;20198;-82
2023/09/11 03:06:14;;;;;;;5.63;5.10;;;21.00;73.50;20.30;96477.00;;;;5090893;28;20225;-82
2023/09/11 03:08:43;;;;;;;5.33;4.93;;;21.00;73.50;20.30;96479.00;;;;5086153;28;20199;-82
2023/09/11 03:11:11;;;;;;;5.90;5.40;;;21.00;73.60;20.30;96478.00;;;;5090698;28;20203;-82
2023/09/11 03:13:38;;;;;;;5.70;5.30;;;21.00;73.50;20.30;96485.00;;;;5081939;28;20205;-82
2023/09/11 03:16:14;;;;;;;5.70;5.30;;;20.90;73.50;20.20;96477.00;;;;5089205;28;20221;-82
2023/09/11 03:18:42;;;;;;;6.27;5.63;;;20.90;73.50;20.20;96474.00;;;;5071030;28;20252;-82
2023/09/11 03:21:10;;;;;;;5.17;4.87;;;20.90;73.30;20.20;96473.00;;;;5088243;28;20429;-81
2023/09/11 03:23:37;;;;;;;5.90;5.40;;;20.90;73.30;20.20;96469.00;;;;5085509;28;20226;-82
2023/09/11 03:26:13;;;;;;;5.47;4.93;;;20.90;73.30;20.20;96468.00;;;;5076391;28;20325;-82
2023/09/11 03:28:41;;;;;;;5.17;4.73;;;20.90;73.50;20.10;96479.00;;;;5085214;28;20194;-82
2023/09/11 03:31:08;;;;;;;5.37;4.97;;;20.80;73.20;20.10;96468.00;;;;5080835;28;20200;-82
2023/09/11 03:33:35;;;;;;;5.60;5.10;;;20.90;73.30;20.10;96475.00;;;;5077781;28;20581;-82
2023/09/11 03:36:02;;;;;;;6.17;5.40;;;20.80;73.30;20.10;96483.00;;;;5085383;28;20211;-82
2023/09/11 03:38:29;;;;;;;5.67;5.27;;;20.80;73.20;20.10;96470.00;;;;5097008;28;20206;-82
2023/09/11 03:40:59;;;;;;;5.77;5.27;;;20.80;73.20;20.00;96470.00;;;;5097096;28;20603;-82
2023/09/11 03:43:27;;;;;;;5.60;5.10;;;20.80;73.30;20.00;96470.00;;;;5099068;28;20279;-82
2023/09/11 03:45:55;;;;;;;5.70;5.30;;;20.70;73.40;20.00;96474.00;;;;5091817;28;20212;-82
2023/09/11 03:48:22;;;;;;;5.27;4.83;;;20.70;73.40;20.00;96480.00;;;;5099108;28;20312;-82
2023/09/11 03:50:49;;;;;;;5.57;5.13;;;20.70;73.50;20.00;96475.00;;;;5098063;28;20227;-82
2023/09/11 03:53:16;;;;;;;5.57;5.17;;;20.70;73.50;20.00;96475.00;;;;5098232;28;20600;-82
2023/09/11 03:55:44;;;;;;;5.63;5.10;;;20.70;73.50;19.90;96475.00;;;;5096741;28;20625;-82
2023/09/11 03:58:12;;;;;;;6.00;5.03;;;20.70;73.60;19.90;96475.00;;;;5097203;28;20205;-82
2023/09/11 04:00:41;;;;;;;5.43;5.00;;;20.70;74.40;19.90;96476.00;;;;5096080;28;20561;-82
2023/09/11 04:03:08;;;;;;;5.83;5.33;;;20.70;73.60;19.90;96480.00;;;;5096569;28;20194;-82
2023/09/11 04:05:36;;;;;;;6.50;5.10;;;20.60;73.40;19.90;96478.00;;;;5091629;28;20215;-81
2023/09/11 04:08:04;;;;;;;4.83;4.47;;;20.60;73.40;19.90;96470.00;;;;5085633;28;20192;-82
2023/09/11 04:10:32;;;;;;;5.90;5.40;;;20.60;73.40;19.90;96468.00;;;;5076976;28;20283;-82
2023/09/11 04:12:59;;;;;;;5.60;5.10;;;20.60;73.40;19.80;96469.00;;;;5093917;28;20558;-82
2023/09/11 04:15:26;;;;;;;5.37;4.97;;;20.60;73.30;19.80;96463.00;;;;5080344;28;20227;-82
2023/09/11 04:17:56;;;;;;;4.90;4.50;;;20.60;73.30;19.80;96467.00;;;;5088775;28;20658;-82
2023/09/11 04:20:25;;;;;;;5.53;5.10;;;20.60;73.30;19.80;96464.00;;;;5087670;28;20219;-82
2023/09/11 04:22:52;;;;;;;5.60;5.00;;;20.60;73.40;19.80;96456.00;;;;5093860;28;20201;-82
2023/09/11 04:25:20;;;;;;;6.20;5.60;;;20.60;73.50;19.80;96461.00;;;;5081142;28;20310;-82
2023/09/11 04:27:47;;;;;;;5.33;4.93;;;20.50;73.30;19.80;96468.00;;;;5100141;28;20242;-81
2023/09/11 04:30:17;;;;;;;5.03;4.63;;;20.50;73.30;19.70;96468.00;;;;5098893;28;20199;-82
2023/09/11 04:32:44;;;;;;;5.33;4.93;;;20.50;73.20;19.70;96463.00;;;;5098394;28;20225;-82
2023/09/11 04:35:13;;;;;;;5.60;5.10;;;20.50;73.20;19.70;96461.00;;;;5087631;28;20283;-80
2023/09/11 04:37:40;;;;;;;4.97;4.60;;;20.50;73.30;19.70;96467.00;;;;5076859;28;20728;-82
2023/09/11 04:40:09;;;;;;;5.33;4.93;;;20.40;73.30;19.70;96468.00;;;;5109855;28;20219;-81
2023/09/11 04:42:38;;;;;;;4.97;4.43;;;20.40;73.30;19.70;96463.00;;;;5095909;28;20262;-82
2023/09/11 04:45:08;;;;;;;5.17;4.77;;;20.40;73.30;19.70;96471.00;;;;5095844;28;20547;-82
2023/09/11 04:47:35;;;;;;;5.63;5.10;;;20.40;73.30;19.60;96471.00;;;;5090113;28;20755;-82
2023/09/11 04:50:03;;;;;;;5.50;5.10;;;20.40;73.20;19.60;96476.00;;;;5094201;28;20684;-82
2023/09/11 04:52:32;;;;;;;5.00;4.60;;;20.40;73.20;19.60;96473.00;;;;5090408;28;20199;-82
2023/09/11 04:54:59;;;;;;;5.63;5.10;;;20.40;73.20;19.60;96469.00;;;;5082971;28;20208;-81
2023/09/11 04:57:26;;;;;;;5.13;4.77;;;20.40;73.10;19.60;96474.00;;;;5075147;28;20206;-82
2023/09/11 04:59:53;;;;;;;5.40;5.00;;;20.40;73.10;19.60;96477.00;;;;5075001;28;20197;-81
2023/09/11 05:02:21;;;;;;;4.93;4.53;;;20.40;73.10;19.60;96474.00;;;;5086073;28;20207;-82
2023/09/11 05:04:49;;;;;;;5.03;4.63;;;20.40;73.20;19.60;96483.00;;;;5087916;28;20202;-82
2023/09/11 05:07:16;;;;;;;4.87;4.47;;;20.40;73.20;19.60;96483.00;;;;5094456;28;20195;-82
2023/09/11 05:09:45;;;;;;;5.07;4.67;;;20.40;73.20;19.50;96478.00;;;;5094992;28;20199;-82
2023/09/11 05:12:12;;;;;;;5.37;4.90;;;20.40;73.20;19.50;96475.00;;;;5093851;28;20204;-82
2023/09/11 05:14:40;;;;;;;8.20;6.10;;;20.40;73.30;19.50;96475.00;;;;5079751;28;20695;-82
2023/09/11 05:17:07;;;;;;;5.50;5.00;;;20.40;73.50;19.60;96479.00;;;;5086914;28;20311;-81
2023/09/11 05:19:35;;;;;;;5.70;5.30;;;20.40;73.80;19.60;96475.00;;;;5096717;28;20202;-82
2023/09/11 05:22:02;;;;;;;5.60;5.00;;;20.40;73.90;19.60;96484.00;;;;5092405;28;20307;-82
2023/09/11 05:24:31;;;;;;;5.27;4.87;;;20.40;73.90;19.60;96475.00;;;;5096222;28;20576;-81
2023/09/11 05:27:00;;;;;;;5.50;5.10;;;20.40;73.90;19.60;96484.00;;;;5095257;28;20241;-81
2023/09/11 05:29:27;;;;;;;5.10;4.70;;;20.40;74.00;19.60;96483.00;;;;5095803;28;20203;-82
2023/09/11 05:31:54;;;;;;;5.90;5.50;;;20.40;73.80;19.60;96487.00;;;;5085716;28;20606;-81
2023/09/11 05:34:21;;;;;;;5.60;5.10;;;20.40;73.90;19.60;96494.00;;;;5093035;28;20202;-80
2023/09/11 05:36:49;;;;;;;5.50;5.10;;;20.40;73.80;19.60;96491.00;;;;5094279;28;20222;-82
2023/09/11 05:39:17;;;;;;;5.63;5.13;;;20.40;73.90;19.60;96491.00;;;;5078861;28;20851;-81
2023/09/11 05:41:45;;;;;;;6.23;5.73;;;20.40;73.90;19.60;96489.00;;;;5081791;28;20757;-81
2023/09/11 05:44:13;;;;;;;6.50;5.90;;;20.40;74.10;19.70;96495.00;;;;5077919;28;20646;-81
2023/09/11 05:46:41;;;;;;;5.53;5.13;;;20.40;74.40;19.70;96491.00;;;;5094021;28;20696;-81
2023/09/11 05:49:08;;;;;;;5.70;5.30;;;20.40;74.40;19.70;96493.00;;;;5094150;28;20198;-81
2023/09/11 05:51:35;;;;;;;5.63;5.03;;;20.40;74.50;19.70;96486.00;;;;5094842;28;20210;-82
2023/09/11 05:54:02;;;;;;;5.83;5.37;;;20.40;74.70;19.70;96493.00;;;;5092675;28;20222;-82
2023/09/11 05:56:30;;;;;;;5.30;4.90;;;20.40;74.80;19.70;96495.00;;;;5095110;28;20218;-82
2023/09/11 05:58:57;;;;;;;5.37;4.97;;;20.50;75.00;19.80;96498.00;;;;5083646;28;20207;-82
2023/09/11 06:01:27;;;;;;;6.13;5.63;;;20.50;75.10;19.80;96492.00;;;;5073988;28;20223;-81
2023/09/11 06:03:54;;;;;;;5.83;5.23;;;20.50;75.40;19.80;96501.00;;;;5090168;28;20223;-81
2023/09/11 06:06:21;;;;;;;6.43;5.87;;;20.50;75.50;19.90;96496.00;;;;5088463;28;20221;-82
2023/09/11 06:08:48;;;;;;;5.87;5.37;;;20.60;76.50;19.90;96499.00;;;;5090968;28;20192;-81
2023/09/11 06:11:16;;;;;;;7.07;6.47;;;20.60;76.00;20.00;96499.00;;;;5099450;28;20199;-82
2023/09/11 06:13:43;;;;;;;6.27;5.77;;;20.60;76.30;20.00;96497.00;;;;5086187;28;20774;-81
2023/09/11 06:16:12;;;;;;;6.63;6.13;;;20.70;76.60;20.10;96496.00;;;;5087014;28;20215;-81
2023/09/11 06:18:40;;;;;;;8.93;6.87;;;20.70;76.70;20.10;96492.00;;;;5090135;28;20274;-81
2023/09/11 06:21:07;;;;;;;7.27;6.67;;;20.80;77.50;20.20;96500.00;;;;5094572;28;20211;-81
2023/09/11 06:23:35;;;;;;;6.73;6.13;;;20.80;77.40;20.30;96501.00;;;;5092066;28;20198;-82
2023/09/11 06:26:02;;;;;;;7.30;6.60;;;20.90;77.50;20.40;96502.00;;;;5092745;28;20225;-81
2023/09/11 06:28:30;;;;;;;7.67;6.97;;;20.90;77.70;20.40;96496.00;;;;5092369;28;20191;-82
2023/09/11 06:30:59;;;;;;;8.57;7.67;;;21.00;77.90;20.50;96500.00;;;;5093182;28;20751;-81
2023/09/11 06:33:27;;;;;;;6.70;6.10;;;21.10;78.10;20.60;96497.00;;;;5093315;28;20198;-81
2023/09/11 06:35:56;;;;;;;7.27;6.67;;;21.10;78.20;20.60;96504.00;;;;5093675;28;20226;-81
2023/09/11 06:38:23;;;;;;;7.23;6.63;;;21.20;78.40;20.70;96502.00;;;;5092648;28;20211;-81
2023/09/11 06:40:50;;;;;;;7.13;6.53;;;21.20;78.30;20.80;96501.00;;;;5093439;28;20225;-82
2023/09/11 06:43:18;;;;;;;10.00;7.40;;;21.30;78.40;20.80;96503.00;;;;5092357;28;20187;-81
2023/09/11 06:45:45;;;;;;;8.90;7.97;;;21.40;78.70;20.90;96507.00;;;;5102888;28;20250;-81
2023/09/11 06:48:13;;;;;;;8.20;7.40;;;21.40;78.80;21.00;96504.00;;;;5100147;28;20724;-81
2023/09/11 06:50:40;;;;;;;8.60;7.83;;;21.50;78.90;21.10;96501.00;;;;5101265;28;20568;-81
2023/09/11 06:53:10;;;;;;;8.97;8.10;;;21.60;79.00;21.10;96493.00;;;;5101566;28;20191;-81
2023/09/11 06:55:45;;;;;;;9.33;8.43;;;21.60;79.10;21.20;96500.00;;;;5101428;28;20321;-81
2023/09/11 06:58:27;;;;;;;9.97;7.77;;;21.70;79.40;21.30;96503.00;;;;5101779;28;20187;-81
2023/09/11 07:00:54;;;;;;;8.07;7.37;;;21.80;79.40;21.40;96507.00;;;;5103056;28;20773;-81
2023/09/11 07:03:21;;;;;;;8.67;7.87;;;21.90;79.30;21.50;96500.00;;;;5102615;28;20198;-81
2023/09/11 07:05:51;;;;;;;9.03;8.13;;;21.90;79.40;21.50;96494.00;;;;5099118;28;20219;-80
2023/09/11 07:08:19;;;;;;;9.37;8.53;;;22.00;79.50;21.60;96502.00;;;;5096346;28;20209;-81
2023/09/11 07:10:50;;;;;;;9.57;8.73;;;22.10;79.70;21.70;96496.00;;;;5101808;28;20266;-81
2023/09/11 07:13:19;;;;;;;8.87;8.07;;;22.20;80.00;21.80;96492.00;;;;5104778;28;20202;-80
2023/09/11 07:15:56;;;;;;;8.40;7.70;;;22.30;79.90;21.90;96500.00;;;;5105432;28;20215;-81
2023/09/11 07:18:23;;;;;;;9.23;8.37;;;22.40;80.40;22.10;96494.00;;;;5085032;28;20196;-81
2023/09/11 07:20:52;;;;;;;9.97;8.60;;;22.50;80.00;22.20;96497.00;;;;5100708;28;20217;-81
2023/09/11 07:23:23;;;;;;;9.73;8.93;;;22.50;80.10;22.30;96503.00;;;;5083976;28;20735;-80
2023/09/11 07:25:51;;;;;;;9.07;8.30;;;22.60;80.10;22.40;96493.00;;;;5099944;28;20224;-81
2023/09/11 07:28:19;;;;;;;8.83;8.03;;;22.80;80.20;22.60;96505.00;;;;5103135;28;20210;-80
2023/09/11 07:30:46;;;;;;;9.20;8.40;;;22.90;80.30;22.70;96507.00;;;;5103897;28;20246;-80
2023/09/11 07:33:14;;;;;;;10.10;9.20;;;23.00;80.30;22.80;96501.00;;;;5101479;28;20209;-79
2023/09/11 07:35:41;;;;;;;9.07;8.17;;;23.10;80.30;22.90;96507.00;;;;5105547;28;20217;-80
2023/09/11 07:38:09;;;;;;;8.00;7.40;;;23.20;80.30;23.10;96511.00;;;;5103564;28;20268;-79
2023/09/11 07:40:38;;;;;;;8.10;7.43;;;23.30;80.30;23.20;96510.00;;;;5105047;28;20277;-81
2023/09/11 07:43:06;;;;;;;8.33;7.40;;;23.50;80.40;23.30;96503.00;;;;5103206;28;20257;-79
2023/09/11 07:45:33;;;;;;;8.60;7.77;;;23.60;80.20;23.50;96502.00;;;;5097775;28;20578;-80
2023/09/11 07:48:00;;;;;;;8.23;7.43;;;23.70;80.00;23.60;96497.00;;;;5097769;28;20209;-80
2023/09/11 07:50:28;;;;;;;8.20;6.63;;;23.90;79.80;23.70;96502.00;;;;5096328;28;20203;-81
2023/09/11 07:52:55;;;;;;;8.47;7.77;;;24.00;79.90;23.80;96512.00;;;;5099652;28;20237;-81
2023/09/11 07:55:24;;;;;;;7.73;7.03;;;24.10;80.50;24.00;96512.00;;;;5096839;28;20314;-81
2023/09/11 07:57:53;;;;;;;8.53;7.80;;;24.20;79.80;24.10;96509.00;;;;5095209;28;20213;-80
2023/09/11 08:00:21;;;;;;;7.50;6.80;;;24.40;79.80;24.30;96506.00;;;;5094844;28;20200;-81
2023/09/11 08:02:49;;;;;;;6.83;6.23;;;24.50;79.60;24.40;96506.00;;;;5097061;28;20700;-81
2023/09/11 08:05:17;;;;;;;8.30;6.43;;;24.60;79.10;24.50;96510.00;;;;5094684;28;20215;-81
2023/09/11 08:07:44;;;;;;;6.70;6.17;;;24.70;79.00;24.60;96509.00;;;;5095599;28;20682;-81
2023/09/11 08:10:11;;;;;;;6.87;6.37;;;24.90;79.20;24.80;96507.00;;;;5095997;28;20195;-81
2023/09/11 08:12:38;;;;;;;7.47;6.73;;;25.00;79.10;24.90;96499.00;;;;5095614;28;20195;-81
2023/09/11 08:15:09;;;;;;;6.67;6.20;;;25.10;79.00;25.10;96500.00;;;;5082970;28;20293;-81
2023/09/11 08:17:36;;;;;;;6.93;6.20;;;25.30;79.10;25.20;96510.00;;;;5075362;28;20196;-81
2023/09/11 08:20:03;;;;;;;6.40;5.90;;;25.40;79.00;25.30;96507.00;;;;5075242;28;20200;-81
2023/09/11 08:22:31;;;;;;;6.23;5.73;;;25.60;79.00;25.50;96509.00;;;;5075147;28;20713;-81
2023/09/11 08:24:58;;;;;;;6.57;5.97;;;25.70;78.70;25.60;96512.00;;;;5085266;28;20195;-80
2023/09/11 08:27:25;;;;;;;7.27;6.60;;;25.80;78.00;25.70;96509.00;;;;5099506;28;20285;-80
2023/09/11 08:29:55;;;;;;;7.23;6.47;;;26.00;77.70;25.90;96511.00;;;;5099600;28;20763;-80
2023/09/11 08:32:23;;;;;;;6.70;6.20;;;26.10;77.70;26.00;96503.00;;;;5094039;28;20229;-80
2023/09/11 08:34:50;;;;;;;6.93;6.17;;;26.20;77.50;26.20;96505.00;;;;5117402;28;20431;-81
2023/09/11 08:37:18;;;;;;;6.17;5.63;;;26.30;77.40;26.30;96500.00;;;;5117542;28;20201;-80
2023/09/11 08:39:45;;;;;;;5.80;5.40;;;26.50;77.30;26.40;96500.00;;;;5119527;28;20564;-80
2023/09/11 08:42:12;;;;;;;6.20;5.78;;;26.60;77.00;26.50;96498.00;;;;5118860;27;20226;-81
2023/09/11 08:44:39;;;;;;;6.03;5.40;;;26.70;76.90;26.70;96498.00;;;;5119794;28;20758;-80
2023/09/11 08:47:11;;;;;;;6.57;6.07;;;26.80;76.80;26.80;96507.00;;;;5120091;28;20305;-80
2023/09/11 08:49:45;;;;;;;6.50;5.90;;;27.00;76.50;27.00;96493.00;;;;5120902;28;20218;-80
2023/09/11 08:52:16;;;;;;;6.30;5.80;;;27.10;76.30;27.10;96504.00;;;;5119805;28;20201;-80
2023/09/11 08:54:46;;;;;;;6.55;5.75;;;27.20;75.90;27.20;96504.00;;;;5115220;28;20207;-80
2023/09/11 08:57:16;;;;;;;6.00;5.50;;;27.40;75.70;27.40;96505.00;;;;5101392;28;20278;-81
2023/09/11 08:59:46;;;;;;;5.88;5.43;;;27.50;75.70;27.50;96492.00;;;;5098202;28;20262;-81
2023/09/11 09:02:14;;;;;;;6.10;5.68;;;27.60;75.00;27.60;96499.00;;;;5098941;28;20261;-81
2023/09/11 09:04:44;;;;;;;5.75;5.35;;;27.80;74.60;27.80;96503.00;;;;5101483;28;20197;-81
2023/09/11 09:07:12;;;;;;;5.50;5.10;;;27.90;74.00;27.90;96503.00;;;;5083448;28;20243;-81
2023/09/11 09:09:41;;;;;;;6.03;5.60;;;28.00;74.50;28.10;96507.00;;;;5101559;28;20303;-81
2023/09/11 09:12:09;;;;;;;6.22;5.72;;;28.10;74.30;28.20;96492.00;;;;5101876;28;20579;-81
2023/09/11 09:14:39;;;;;;;5.60;5.20;;;28.20;73.60;28.30;96496.00;;;;5102827;28;20202;-81
2023/09/11 09:17:08;;;;;;;6.15;5.65;;;28.40;73.10;28.50;96492.00;;;;5102287;28;20818;-81
2023/09/11 09:19:35;;;;;;;6.50;6.00;;;28.50;72.30;28.60;96489.00;;;;5100625;28;20199;-81
2023/09/11 09:22:13;;;;;;;5.40;5.00;;;28.70;72.00;28.80;96492.00;;;;5101660;28;20219;-81
2023/09/11 09:24:49;;;;;;;5.18;4.88;;;28.80;72.20;28.90;96489.00;;;;5101246;28;20667;-81
2023/09/11 09:27:16;;;;;;;5.40;5.00;;;29.00;70.80;29.00;96485.00;;;;5099868;28;20195;-81
2023/09/11 09:29:44;;;;;;;5.35;4.88;;;29.10;71.30;29.10;96489.00;;;;5097826;28;20578;-81
2023/09/11 09:32:13;;;;;;;5.45;4.97;;;29.20;69.60;29.30;96478.00;;;;5096708;28;20624;-81
2023/09/11 09:34:50;;;;;;;5.20;4.90;;;29.40;69.50;29.40;96487.00;;;;5097941;28;20580;-82
2023/09/11 09:37:20;;;;;;;5.78;4.45;;;29.50;67.10;29.60;96477.00;;;;5097378;28;20207;-81
2023/09/11 09:39:50;;;;;;;5.55;5.15;;;29.60;66.70;29.80;96483.00;;;;5098299;28;20227;-81
2023/09/11 09:42:17;;;;;;;4.75;4.45;;;29.80;65.80;29.90;96478.00;;;;5098131;28;20244;-82
2023/09/11 09:44:52;;;;;;;4.78;4.47;;;29.90;66.10;30.00;96478.00;;;;5098095;28;20541;-81
2023/09/11 09:47:21;;;;;;;4.43;4.13;;;30.10;65.20;30.20;96478.00;;;;5096466;28;20203;-81
2023/09/11 09:49:51;;;;;;;4.72;4.43;;;30.20;65.40;30.30;96480.00;;;;5097237;28;20702;-81
2023/09/11 09:52:22;;;;;;;4.82;4.45;;;30.30;65.10;30.40;96473.00;;;;5095905;28;20195;-81
2023/09/11 09:54:52;;;;;;;4.53;4.22;;;30.40;65.20;30.50;96471.00;;;;5094872;28;20298;-82
2023/09/11 09:57:23;;;;;;;4.75;4.35;;;30.60;65.10;30.70;96475.00;;;;5094440;28;20245;-82
2023/09/11 09:59:53;;;;;;;4.25;3.95;;;30.70;64.50;30.70;96467.00;;;;5094731;27;20583;-82
2023/09/11 10:02:27;;;;;;;4.25;3.92;;;30.80;64.00;30.80;96471.00;;;;5094590;28;20227;-82
2023/09/11 10:04:56;;;;;;;4.78;4.38;;;30.90;62.60;30.90;96466.00;;;;5092776;28;20230;-81
2023/09/11 10:07:48;;;;;;;5.18;4.78;;;31.00;62.80;31.00;96467.00;;;;5094580;28;20278;-81
2023/09/11 10:10:22;;;;;;;4.65;4.30;;;31.10;62.30;31.10;96459.00;;;;5093905;28;20210;-81
2023/09/11 10:12:54;;;;;;;4.93;4.47;;;31.10;61.30;31.20;96459.00;;;;5073963;28;20205;-81
2023/09/11 10:15:22;;;;;;;4.70;4.22;;;31.20;60.80;31.20;96458.00;;;;5092747;28;20255;-83
2023/09/11 10:17:54;;;;;;;4.10;3.80;;;31.30;59.90;31.30;96451.00;;;;5093361;28;20209;-82
2023/09/11 10:20:23;;;;;;;4.07;3.78;;;31.40;59.30;31.30;96442.00;;;;5095012;28;20195;-82
2023/09/11 10:22:56;;;;;;;4.05;3.85;;;31.40;59.30;31.40;96441.00;;;;5110756;28;20215;-82
2023/09/11 10:25:25;;;;;;;4.53;3.85;;;31.50;58.40;31.50;96446.00;;;;5108998;28;20223;-82
2023/09/11 10:28:02;;;;;;;3.90;3.67;;;31.60;59.10;31.60;96439.00;;;;5098832;28;20219;-82
2023/09/11 10:30:40;;;;;;;4.40;4.03;;;31.60;58.90;31.70;96443.00;;;;5101312;28;20215;-81
2023/09/11 10:33:17;;;;;;;4.50;4.20;;;31.70;59.40;31.70;96435.00;;;;5105637;28;20266;-81
2023/09/11 10:35:47;;;;;;;3.90;3.60;;;31.80;58.70;31.80;96434.00;;;;5094538;28;20230;-82
2023/09/11 10:38:17;;;;;;;4.30;4.00;;;31.90;59.10;31.90;96439.00;;;;5093157;28;20206;-82
2023/09/11 10:40:51;;;;;;;4.22;3.92;;;32.00;58.80;32.00;96445.00;;;;5093572;28;20191;-83
2023/09/11 10:43:18;;;;;;;4.20;3.80;;;32.00;57.90;32.00;96449.00;;;;5092646;28;20231;-82
2023/09/11 10:45:46;;;;;;;4.18;3.83;;;32.10;57.50;32.10;96444.00;;;;5091849;28;20298;-82
2023/09/11 10:48:31;;;;;;;4.78;4.18;;;32.20;57.20;32.10;96433.00;;;;5091336;28;20206;-82
2023/09/11 10:51:01;;;;;;;4.00;3.70;;;32.20;55.20;32.20;96434.00;;;;5092617;28;20677;-82
2023/09/11 10:53:32;;;;;;;4.18;3.88;;;32.20;56.70;32.20;96425.00;;;;5093547;28;20240;-82
2023/09/11 10:56:03;;;;;;;3.80;3.50;;;32.20;56.60;32.20;96422.00;;;;5099696;28;20227;-83
2023/09/11 10:58:32;;;;;;;3.70;3.50;;;32.30;54.50;32.20;96428.00;;;;5094445;28;20233;-83
2023/09/11 11:00:59;;;;;;;4.13;3.83;;;32.30;54.50;32.10;96419.00;;;;5099256;28;20199;-82
2023/09/11 11:03:28;;;;;;;3.50;3.20;;;32.30;54.40;32.10;96421.00;;;;5074705;28;20219;-83